Time;durP1;ratioP1;P1;durP2;ratioP2;P2;SDS_P1;SDS_P2;PMS_P1;PMS_P2;Temp;Humidity;BMP_temperature;BMP_pressure;BME280_temperature;BME280_humidity;BME280_pressure;Samples;Min_cycle;Max_cycle;Signal;HPM_P1;HPM_P2
2023/08/18 00:01:22;;;;;;;12.30;4.60;;;;;;;23.23;58.52;101363.63;106934;1258;109326;-65
2023/08/18 00:03:50;;;;;;;12.60;4.70;;;;;;;23.15;58.54;101358.79;106906;1261;107457;-66
2023/08/18 00:06:19;;;;;;;13.00;4.50;;;;;;;23.08;59.07;101360.46;106943;1257;97687;-66
2023/08/18 00:08:47;;;;;;;17.80;4.70;;;;;;;23.01;58.98;101358.14;106953;1257;97789;-66
2023/08/18 00:11:16;;;;;;;11.80;4.20;;;;;;;22.95;59.15;101357.61;106960;1257;112012;-66
2023/08/18 00:13:43;;;;;;;12.70;4.80;;;;;;;22.92;59.31;101354.56;106960;1261;111276;-66
2023/08/18 00:16:12;;;;;;;10.50;4.30;;;;;;;22.92;59.19;101355.20;106954;1257;107934;-66
2023/08/18 00:18:40;;;;;;;12.40;3.70;;;;;;;22.93;59.42;101356.90;106906;1257;97877;-66
2023/08/18 00:21:09;;;;;;;23.20;4.90;;;;;;;22.95;59.41;101358.29;106983;1257;98467;-66
2023/08/18 00:23:37;;;;;;;6.40;4.00;;;;;;;22.96;59.45;101357.91;106893;1257;111434;-65
2023/08/18 00:26:08;;;;;;;10.50;4.40;;;;;;;22.98;59.52;101363.38;107115;1257;108410;-66
2023/08/18 00:28:37;;;;;;;7.80;4.10;;;;;;;22.98;59.56;101361.98;106963;1261;107417;-65
2023/08/18 00:31:05;;;;;;;17.40;3.90;;;;;;;22.99;59.65;101361.35;106961;1258;97806;-66
2023/08/18 00:33:33;;;;;;;11.10;4.20;;;;;;;23.00;59.75;101360.67;107074;1257;97727;-66
2023/08/18 00:36:02;;;;;;;8.50;3.70;;;;;;;23.01;59.72;101362.36;107017;1257;110584;-66
2023/08/18 00:38:30;;;;;;;10.60;4.10;;;;;;;23.03;59.74;101363.13;106916;1257;109086;-65
2023/08/18 00:40:58;;;;;;;13.60;4.20;;;;;;;23.06;59.68;101360.77;106975;1257;107258;-65
2023/08/18 00:43:26;;;;;;;9.00;3.90;;;;;;;23.08;59.64;101360.83;106965;1257;97518;-67
2023/08/18 00:45:57;;;;;;;14.20;4.20;;;;;;;23.09;59.43;101363.29;107007;1257;97741;-66
2023/08/18 00:48:26;;;;;;;11.10;4.00;;;;;;;23.10;59.63;101362.77;106981;1257;112070;-67
2023/08/18 00:50:57;;;;;;;17.40;3.80;;;;;;;23.10;59.51;101364.97;106984;1257;109101;-66
2023/08/18 00:53:25;;;;;;;12.80;3.80;;;;;;;23.10;59.71;101364.80;106942;1261;108116;-67
2023/08/18 00:55:53;;;;;;;9.90;3.40;;;;;;;23.08;59.55;101367.42;106888;1259;97801;-67
2023/08/18 00:58:22;;;;;;;8.90;4.40;;;;;;;23.06;59.82;101366.73;106992;1257;98352;-67
2023/08/18 01:00:51;;;;;;;10.00;4.20;;;;;;;23.05;59.69;101369.52;107007;1261;112154;-66
2023/08/18 01:03:21;;;;;;;9.90;3.90;;;;;;;23.03;59.53;101371.75;107003;1259;109999;-67
2023/08/18 01:05:49;;;;;;;10.60;3.80;;;;;;;23.00;59.29;101371.00;107057;1258;106789;-67
2023/08/18 01:08:18;;;;;;;8.50;4.10;;;;;;;22.98;59.30;101373.88;106961;1259;97924;-67
2023/08/18 01:11:11;;;;;;;8.20;4.00;;;;;;;22.94;59.21;101373.27;106980;1257;98369;-67
2023/08/18 01:14:02;;;;;;;10.50;4.70;;;;;;;22.89;59.26;101372.11;107011;1257;112207;-65
2023/08/18 01:16:33;;;;;;;12.70;3.60;;;;;;;22.83;59.35;101376.69;107002;1259;109449;-65
2023/08/18 01:19:03;;;;;;;13.50;3.90;;;;;;;22.78;59.37;101380.83;106879;1258;108024;-66
2023/08/18 01:21:33;;;;;;;11.80;4.30;;;;;;;22.75;59.04;101382.58;106882;1257;97917;-66
2023/08/18 01:24:03;;;;;;;7.10;4.00;;;;;;;22.71;58.94;101384.64;106963;1258;97799;-66
2023/08/18 01:26:31;;;;;;;8.80;4.50;;;;;;;22.69;58.85;101377.36;107115;1257;110741;-66
2023/08/18 01:29:00;;;;;;;10.40;3.90;;;;;;;22.66;59.05;101384.64;107084;1257;109707;-64
2023/08/18 01:31:32;;;;;;;10.70;4.20;;;;;;;22.62;59.12;101382.98;106963;1257;107801;-67
2023/08/18 01:34:06;;;;;;;7.80;4.20;;;;;;;22.58;59.01;101381.64;106845;1263;97726;-65
2023/08/18 01:36:38;;;;;;;8.60;4.10;;;;;;;22.54;58.83;101382.89;106949;1257;97872;-66
2023/08/18 01:39:09;;;;;;;9.10;3.90;;;;;;;22.50;58.94;101379.40;107023;1257;111555;-66
2023/08/18 01:41:40;;;;;;;12.80;3.50;;;;;;;22.46;59.04;101376.66;107262;1257;109533;-66
2023/08/18 01:44:08;;;;;;;10.90;3.80;;;;;;;22.45;59.17;101377.17;106986;1259;108104;-66
2023/08/18 01:46:38;;;;;;;13.80;4.10;;;;;;;22.43;59.11;101382.92;106982;1257;97830;-65
2023/08/18 01:49:06;;;;;;;8.90;4.20;;;;;;;22.42;59.34;101385.79;106859;1258;98447;-66
2023/08/18 01:51:34;;;;;;;10.50;3.70;;;;;;;22.40;59.45;101389.41;106982;1257;111852;-66
2023/08/18 01:54:03;;;;;;;5.30;3.30;;;;;;;22.39;59.40;101388.41;106946;1259;109775;-66
2023/08/18 01:56:31;;;;;;;11.10;3.80;;;;;;;22.39;59.49;101387.77;107015;1259;108829;-65
2023/08/18 01:59:03;;;;;;;8.30;4.00;;;;;;;22.36;59.74;101387.50;107004;1257;97849;-66
2023/08/18 02:01:31;;;;;;;8.90;4.20;;;;;;;22.33;59.62;101386.80;107029;1257;98487;-66
2023/08/18 02:04:00;;;;;;;7.30;4.50;;;;;;;22.30;59.91;101385.05;106997;1258;110367;-65
2023/08/18 02:06:31;;;;;;;16.20;4.10;;;;;;;22.26;60.14;101386.88;107009;1258;109295;-65
2023/08/18 02:08:59;;;;;;;6.10;4.40;;;;;;;22.22;60.18;101386.98;106956;1257;108303;-66
2023/08/18 02:11:27;;;;;;;8.60;4.30;;;;;;;22.18;60.77;101382.23;106901;1257;97830;-65
2023/08/18 02:13:56;;;;;;;6.50;3.70;;;;;;;22.13;61.37;101381.88;106896;1261;97716;-66
2023/08/18 02:16:24;;;;;;;12.50;4.10;;;;;;;22.10;61.32;101383.24;106864;1257;111945;-65
2023/08/18 02:18:53;;;;;;;12.30;4.00;;;;;;;22.08;61.58;101383.52;106986;1257;108984;-66
2023/08/18 02:21:21;;;;;;;8.20;4.20;;;;;;;22.07;61.76;101386.38;106956;1261;107578;-67
2023/08/18 02:23:49;;;;;;;13.60;4.10;;;;;;;22.05;61.93;101387.64;106972;1261;97828;-66
2023/08/18 02:26:18;;;;;;;17.60;4.70;;;;;;;22.04;62.38;101385.47;107108;1260;98374;-67
2023/08/18 02:28:47;;;;;;;11.00;4.30;;;;;;;22.01;62.38;101388.98;106910;1258;110690;-66
2023/08/18 02:31:15;;;;;;;7.00;4.20;;;;;;;21.98;62.37;101390.27;106879;1257;110157;-66
2023/08/18 02:33:43;;;;;;;7.30;3.80;;;;;;;21.94;62.45;101387.24;106875;1263;108217;-67
2023/08/18 02:36:13;;;;;;;10.40;3.80;;;;;;;21.92;62.70;101388.44;106871;1263;98537;-67
2023/08/18 02:38:41;;;;;;;5.60;3.90;;;;;;;21.92;62.85;101387.39;107051;1257;98358;-67
2023/08/18 02:41:09;;;;;;;8.70;3.60;;;;;;;21.91;62.95;101384.95;106944;1259;111236;-67
2023/08/18 02:43:38;;;;;;;7.00;4.00;;;;;;;21.91;62.96;101385.45;106914;1257;109855;-66
2023/08/18 02:46:07;;;;;;;7.10;4.10;;;;;;;21.92;63.19;101386.84;106906;1261;107983;-66
2023/08/18 02:48:35;;;;;;;8.20;4.20;;;;;;;21.92;63.16;101391.14;106937;1257;97908;-67
2023/08/18 02:51:05;;;;;;;11.80;4.30;;;;;;;21.92;63.12;101392.48;106920;1257;97840;-66
2023/08/18 02:53:34;;;;;;;8.60;4.10;;;;;;;21.90;63.48;101396.34;106968;1258;110839;-66
2023/08/18 02:56:03;;;;;;;11.50;4.10;;;;;;;21.90;63.67;101397.70;106956;1257;109390;-67
2023/08/18 02:58:33;;;;;;;14.60;4.30;;;;;;;21.84;64.34;101393.71;106958;1259;107250;-67
2023/08/18 03:01:06;;;;;;;9.60;4.20;;;;;;;21.78;64.73;101394.41;106952;1261;97731;-67
2023/08/18 03:03:35;;;;;;;13.10;4.40;;;;;;;21.72;64.78;101393.65;106949;1257;97820;-67
2023/08/18 03:06:10;;;;;;;13.00;4.30;;;;;;;21.68;64.48;101396.02;106920;1258;111954;-67
2023/08/18 03:08:39;;;;;;;13.40;4.50;;;;;;;21.65;64.47;101392.73;106932;1257;108352;-65
2023/08/18 03:11:08;;;;;;;18.10;4.60;;;;;;;21.62;64.63;101393.67;106902;1258;108771;-67
2023/08/18 03:13:37;;;;;;;7.40;4.00;;;;;;;21.60;64.47;101396.86;106931;1259;98549;-65
2023/08/18 03:16:05;;;;;;;15.00;4.70;;;;;;;21.58;64.58;101400.02;106897;1257;98365;-67
2023/08/18 03:18:34;;;;;;;9.60;4.20;;;;;;;21.57;64.49;101403.23;106856;1257;110934;-67
2023/08/18 03:21:03;;;;;;;12.10;4.50;;;;;;;21.56;64.61;101402.58;106908;1260;109093;-67
2023/08/18 03:23:32;;;;;;;11.30;4.50;;;;;;;21.55;64.79;101404.90;106938;1260;108756;-68
2023/08/18 03:26:05;;;;;;;15.10;4.20;;;;;;;21.51;65.02;101404.73;106838;1259;97821;-67
2023/08/18 03:28:36;;;;;;;7.70;4.00;;;;;;;21.47;65.93;101410.65;106955;1259;98350;-66
2023/08/18 03:31:06;;;;;;;7.30;4.70;;;;;;;21.40;66.57;101407.85;106966;1257;113488;-67
2023/08/18 03:33:35;;;;;;;9.50;4.70;;;;;;;21.34;67.12;101410.48;106925;1257;109098;-67
2023/08/18 03:36:07;;;;;;;12.50;4.20;;;;;;;21.28;67.76;101410.17;106885;1257;108405;-67
2023/08/18 03:38:36;;;;;;;14.20;4.10;;;;;;;21.25;67.12;101410.10;106895;1259;97708;-66
2023/08/18 03:41:06;;;;;;;11.70;4.60;;;;;;;21.26;67.01;101415.46;106938;1261;97754;-67
2023/08/18 03:43:34;;;;;;;7.10;3.80;;;;;;;21.28;66.95;101413.46;106936;1259;110742;-66
2023/08/18 03:46:17;;;;;;;12.40;4.90;;;;;;;21.32;67.03;101414.98;106936;1257;110223;-65
2023/08/18 03:48:48;;;;;;;12.50;4.10;;;;;;;21.34;66.86;101415.34;106902;1257;107662;-66
2023/08/18 03:51:17;;;;;;;10.30;4.70;;;;;;;21.38;66.78;101420.29;106935;1257;97924;-66
2023/08/18 03:53:46;;;;;;;14.20;4.60;;;;;;;21.43;66.72;101418.77;106917;1257;97707;-66
2023/08/18 03:56:15;;;;;;;17.30;4.40;;;;;;;21.48;66.71;101418.99;106947;1257;111043;-66
2023/08/18 03:58:44;;;;;;;9.90;4.20;;;;;;;21.53;66.78;101417.05;106883;1259;108877;-66
2023/08/18 04:01:13;;;;;;;13.20;4.60;;;;;;;21.59;66.71;101414.86;106913;1259;108795;-65
2023/08/18 04:03:43;;;;;;;15.70;4.80;;;;;;;21.67;66.74;101423.00;106941;1257;97805;-66
2023/08/18 04:06:12;;;;;;;10.10;4.20;;;;;;;21.72;66.65;101423.23;107115;1259;97934;-67
2023/08/18 04:08:44;;;;;;;337.40;27.00;;;;;;;21.76;66.42;101424.39;106918;1259;111808;-67
2023/08/18 04:11:12;;;;;;;45.30;7.10;;;;;;;21.81;66.34;101429.66;106940;1259;109220;-67
2023/08/18 04:13:41;;;;;;;47.30;6.90;;;;;;;21.85;66.31;101429.34;106848;1264;108633;-66
2023/08/18 04:16:09;;;;;;;9.50;4.40;;;;;;;21.86;66.24;101432.21;106873;1258;97872;-66
2023/08/18 04:18:39;;;;;;;12.70;4.20;;;;;;;21.90;66.30;101429.81;106964;1259;97734;-66
2023/08/18 04:21:08;;;;;;;14.60;4.70;;;;;;;21.93;66.19;101431.04;106906;1259;112306;-66
2023/08/18 04:23:37;;;;;;;17.90;4.40;;;;;;;21.95;65.95;101430.61;106860;1259;109611;-66
2023/08/18 04:26:06;;;;;;;24.80;4.50;;;;;;;21.95;66.08;101426.41;107098;1259;108495;-66
2023/08/18 04:28:34;;;;;;;7.80;5.10;;;;;;;21.99;66.07;101428.12;106818;1258;97940;-66
2023/08/18 04:31:02;;;;;;;8.80;4.40;;;;;;;22.02;66.08;101426.09;106932;1259;97725;-67
2023/08/18 04:33:40;;;;;;;15.80;5.80;;;;;;;22.08;66.11;101428.20;106851;1259;111464;-67
2023/08/18 04:36:10;;;;;;;12.70;4.40;;;;;;;22.13;66.08;101433.05;106892;1258;109125;-67
2023/08/18 04:38:39;;;;;;;15.70;4.80;;;;;;;22.17;66.14;101434.16;106954;1261;107713;-66
2023/08/18 04:41:09;;;;;;;19.40;4.50;;;;;;;22.22;65.79;101432.09;106854;1259;97807;-66
2023/08/18 04:43:38;;;;;;;9.00;4.70;;;;;;;22.28;65.85;101435.99;106938;1258;97709;-67
2023/08/18 04:46:06;;;;;;;15.00;5.10;;;;;;;22.34;65.81;101435.16;106862;1259;111596;-66
2023/08/18 04:48:35;;;;;;;12.90;4.20;;;;;;;22.37;65.63;101435.11;106926;1259;110701;-67
2023/08/18 04:51:05;;;;;;;11.50;4.70;;;;;;;22.42;65.64;101439.27;106878;1257;108361;-67
2023/08/18 04:53:33;;;;;;;17.30;4.30;;;;;;;22.44;65.90;101436.67;106888;1258;97724;-67
2023/08/18 04:56:03;;;;;;;15.30;4.60;;;;;;;22.49;66.01;101440.34;106945;1257;98371;-66
2023/08/18 04:58:31;;;;;;;17.50;4.60;;;;;;;22.56;65.91;101442.11;106985;1257;110964;-67
2023/08/18 05:01:01;;;;;;;14.10;4.40;;;;;;;22.62;65.67;101445.03;106896;1258;109738;-66
2023/08/18 05:03:31;;;;;;;28.60;6.10;;;;;;;22.70;65.41;101449.52;106944;1261;106783;-67
2023/08/18 05:06:07;;;;;;;18.50;6.80;;;;;;;22.73;64.06;101454.25;106877;1257;97721;-66
2023/08/18 05:08:37;;;;;;;30.80;6.40;;;;;;;22.70;62.62;101457.57;106928;1259;97846;-67
2023/08/18 05:11:08;;;;;;;25.50;7.00;;;;;;;22.70;62.62;101457.98;106977;1258;112413;-66
2023/08/18 05:13:41;;;;;;;19.10;6.10;;;;;;;22.73;62.17;101456.32;106933;1261;109444;-65
2023/08/18 05:16:09;;;;;;;20.60;5.50;;;;;;;22.75;61.76;101457.61;106922;1261;108197;-67
2023/08/18 05:18:38;;;;;;;20.40;5.80;;;;;;;22.80;61.64;101454.44;106882;1261;97928;-67
2023/08/18 05:21:06;;;;;;;16.50;6.20;;;;;;;22.88;61.51;101450.94;106923;1258;97828;-65
2023/08/18 05:23:35;;;;;;;31.40;6.50;;;;;;;22.94;61.46;101452.97;106941;1259;111873;-64
2023/08/18 05:26:03;;;;;;;19.20;6.30;;;;;;;23.04;61.34;101453.77;107213;1261;109253;-66
2023/08/18 05:28:34;;;;;;;19.00;6.00;;;;;;;23.11;61.37;101451.31;106904;1259;108266;-66
2023/08/18 05:31:03;;;;;;;19.20;6.10;;;;;;;23.18;61.16;101450.99;106931;1258;97842;-65
2023/08/18 05:33:31;;;;;;;17.80;5.80;;;;;;;23.24;61.19;101451.23;106984;1259;97878;-65
2023/08/18 05:36:00;;;;;;;23.60;5.80;;;;;;;23.31;61.20;101453.38;106948;1261;112113;-66
2023/08/18 05:38:28;;;;;;;17.10;5.90;;;;;;;23.35;61.09;101449.72;106991;1259;107559;-65
2023/08/18 05:41:09;;;;;;;18.70;5.40;;;;;;;23.40;60.86;101450.01;106924;1258;107862;-67
2023/08/18 05:43:41;;;;;;;21.00;5.20;;;;;;;23.45;60.81;101445.55;106923;1259;97820;-66
2023/08/18 05:46:10;;;;;;;20.10;5.90;;;;;;;23.51;60.66;101438.42;106940;1258;98118;-67
2023/08/18 05:48:39;;;;;;;29.60;6.30;;;;;;;23.57;60.66;101432.86;106920;1259;110913;-68
2023/08/18 05:51:07;;;;;;;16.30;4.70;;;;;;;23.63;60.52;101432.24;106904;1257;110062;-67
2023/08/18 05:53:35;;;;;;;21.60;5.60;;;;;;;23.68;60.40;101433.36;107050;1259;108333;-67
2023/08/18 05:56:04;;;;;;;15.30;4.80;;;;;;;23.74;60.20;101432.14;107068;1259;97815;-67
2023/08/18 05:58:32;;;;;;;15.60;5.20;;;;;;;23.81;59.88;101434.58;106948;1257;97854;-66
2023/08/18 06:01:00;;;;;;;18.30;5.30;;;;;;;23.88;59.79;101440.34;107015;1259;111476;-67
2023/08/18 06:03:30;;;;;;;17.30;5.00;;;;;;;23.97;59.52;101445.11;106921;1257;110098;-66
2023/08/18 06:06:00;;;;;;;11.70;4.40;;;;;;;24.06;59.20;101447.19;106898;1257;108738;-65
2023/08/18 06:08:34;;;;;;;12.70;4.10;;;;;;;24.15;58.82;101446.82;107067;1257;97812;-66
2023/08/18 06:11:02;;;;;;;6.50;3.60;;;;;;;24.24;57.61;101450.04;107035;1259;98353;-66
2023/08/18 06:13:30;;;;;;;16.70;4.20;;;;;;;24.34;57.64;101449.45;107019;1257;111562;-66
2023/08/18 06:16:05;;;;;;;12.00;3.90;;;;;;;24.43;57.20;101455.67;107063;1260;109411;-66
2023/08/18 06:18:33;;;;;;;11.20;3.80;;;;;;;24.51;56.94;101454.39;107050;1257;108228;-67
2023/08/18 06:21:02;;;;;;;18.10;7.30;;;;;;;24.58;56.62;101452.52;107011;1257;96211;-67
2023/08/18 06:23:31;;;;;;;12.30;5.10;;;;;;;24.66;56.68;101450.15;106999;1257;99341;-66
2023/08/18 06:25:59;;;;;;;17.40;4.60;;;;;;;24.74;56.66;101448.02;106855;1257;111853;-66
2023/08/18 06:28:28;;;;;;;20.70;5.20;;;;;;;24.80;56.38;101451.17;106970;1258;109739;-66
2023/08/18 06:31:14;;;;;;;10.20;4.40;;;;;;;24.86;56.30;101452.98;107045;1261;107832;-67
2023/08/18 06:33:43;;;;;;;11.00;4.20;;;;;;;24.94;55.64;101453.85;106996;1259;97831;-66
2023/08/18 06:36:11;;;;;;;15.70;5.10;;;;;;;25.04;55.36;101461.05;107064;1257;98360;-66
2023/08/18 06:38:39;;;;;;;20.70;5.30;;;;;;;25.13;55.07;101465.05;107049;1257;112973;-67
2023/08/18 06:41:09;;;;;;;12.10;4.70;;;;;;;25.21;55.01;101458.89;106988;1257;110006;-66
2023/08/18 06:43:37;;;;;;;19.20;4.90;;;;;;;25.29;54.84;101458.21;106918;1261;108407;-67
2023/08/18 06:46:06;;;;;;;16.50;4.40;;;;;;;25.38;54.84;101459.93;107023;1257;97824;-65
2023/08/18 06:48:35;;;;;;;14.50;5.50;;;;;;;25.48;54.66;101461.01;107013;1256;97710;-66
2023/08/18 06:51:03;;;;;;;14.40;4.90;;;;;;;25.56;53.93;101458.13;107085;1257;111733;-66
2023/08/18 06:53:31;;;;;;;12.50;5.00;;;;;;;25.66;53.57;101458.80;106742;1257;481755;-66
2023/08/18 06:56:00;;;;;;;14.60;4.80;;;;;;;25.73;53.61;101455.28;107180;1257;108173;-66
2023/08/18 06:58:31;;;;;;;16.70;4.40;;;;;;;25.80;53.53;101450.96;106929;1261;98690;-65
2023/08/18 07:00:59;;;;;;;13.80;4.50;;;;;;;25.87;52.97;101457.70;106979;1257;99511;-66
2023/08/18 07:03:28;;;;;;;12.50;4.40;;;;;;;25.94;52.74;101455.11;107020;1259;110897;-65
2023/08/18 07:05:57;;;;;;;15.70;4.30;;;;;;;26.04;52.84;101455.42;106978;1258;109770;-65
2023/08/18 07:08:26;;;;;;;14.00;4.40;;;;;;;26.11;52.72;101453.06;106997;1257;108017;-66
2023/08/18 07:10:54;;;;;;;11.80;3.90;;;;;;;26.20;51.89;101451.23;107133;1257;97736;-66
2023/08/18 07:13:23;;;;;;;16.20;4.70;;;;;;;26.30;51.51;101447.79;106964;1259;97748;-66
2023/08/18 07:15:51;;;;;;;9.60;4.00;;;;;;;26.39;51.29;101444.40;107050;1257;112243;-66
2023/08/18 07:18:19;;;;;;;12.70;4.70;;;;;;;26.48;50.95;101444.61;106922;1258;109724;-65
2023/08/18 07:20:49;;;;;;;15.60;4.70;;;;;;;26.58;50.74;101445.92;106870;1261;108454;-66
2023/08/18 07:23:18;;;;;;;20.70;4.00;;;;;;;26.70;50.71;101444.73;106991;1261;97845;-67
2023/08/18 07:25:47;;;;;;;9.60;3.60;;;;;;;26.81;50.29;101450.55;107030;1257;97710;-66
2023/08/18 07:28:16;;;;;;;9.00;3.70;;;;;;;26.93;49.00;101450.19;107001;1259;111937;-65
2023/08/18 07:30:44;;;;;;;12.50;3.80;;;;;;;27.03;48.65;101456.78;106966;1257;109712;-66
2023/08/18 07:33:13;;;;;;;21.80;5.00;;;;;;;27.14;49.19;101453.64;107020;1259;108449;-65
2023/08/18 07:35:41;;;;;;;13.30;4.10;;;;;;;27.26;48.96;101453.86;107144;1262;97825;-66
2023/08/18 07:38:10;;;;;;;12.30;3.90;;;;;;;27.37;48.77;101449.42;106945;1258;97737;-65
2023/08/18 07:40:38;;;;;;;12.00;3.80;;;;;;;27.49;47.80;101452.20;106938;1257;112548;-66
2023/08/18 07:43:10;;;;;;;18.00;3.40;;;;;;;27.60;47.65;101446.62;106982;1259;109220;-66
2023/08/18 07:45:38;;;;;;;14.00;3.80;;;;;;;27.74;47.36;101450.77;106929;1258;107595;-66
2023/08/18 07:48:07;;;;;;;9.50;3.10;;;;;;;27.85;46.54;101447.23;106920;1259;97815;-66
2023/08/18 07:50:35;;;;;;;8.80;2.90;;;;;;;27.98;46.15;101445.97;106921;1261;98384;-65
2023/08/18 07:53:04;;;;;;;14.40;5.20;;;;;;;28.11;46.00;101445.20;106954;1259;111234;-69
2023/08/18 07:55:32;;;;;;;12.60;3.90;;;;;;;28.26;45.81;101444.14;106961;1257;109303;-68
2023/08/18 07:58:00;;;;;;;15.40;4.90;;;;;;;28.43;45.86;101441.36;106891;1257;107862;-68
2023/08/18 08:00:30;;;;;;;9.80;3.70;;;;;;;28.58;45.24;101441.85;106887;1257;97824;-68
2023/08/18 08:02:58;;;;;;;11.00;4.00;;;;;;;28.72;43.98;101443.81;106966;1257;97819;-66
2023/08/18 08:05:27;;;;;;;18.30;4.60;;;;;;;28.84;44.50;101438.45;106956;1258;112077;-67
2023/08/18 08:07:55;;;;;;;15.10;3.20;;;;;;;28.98;43.79;101440.09;106928;1261;109319;-67
2023/08/18 08:10:26;;;;;;;16.70;3.20;;;;;;;29.10;42.79;101443.61;106889;1257;107953;-67
2023/08/18 08:12:54;;;;;;;9.20;3.70;;;;;;;29.20;43.13;101439.05;106709;1259;97814;-65
2023/08/18 08:15:23;;;;;;;16.10;3.40;;;;;;;29.33;42.65;101436.66;106980;1261;97832;-66
2023/08/18 08:17:51;;;;;;;8.70;3.00;;;;;;;29.41;42.10;101441.31;106912;1261;112202;-67
2023/08/18 08:20:19;;;;;;;3.90;2.50;;;;;;;29.52;42.12;101439.98;106911;1257;108927;-67
2023/08/18 08:22:49;;;;;;;12.70;3.40;;;;;;;29.64;42.04;101436.50;106846;1259;108198;-67
2023/08/18 08:25:17;;;;;;;8.40;3.30;;;;;;;29.77;41.30;101434.80;106867;1257;97825;-65
2023/08/18 08:27:50;;;;;;;7.60;2.70;;;;;;;29.88;41.55;101436.94;106852;1257;97914;-67
2023/08/18 08:30:18;;;;;;;11.30;3.20;;;;;;;30.02;41.17;101436.08;107129;1257;112352;-64
2023/08/18 08:33:08;;;;;;;10.40;2.80;;;;;;;30.11;41.33;101439.18;106901;1261;110225;-69
2023/08/18 08:35:36;;;;;;;14.30;3.20;;;;;;;30.23;40.87;101437.04;106920;1257;107809;-66
2023/08/18 08:38:05;;;;;;;11.70;3.10;;;;;;;30.33;40.86;101437.81;106891;1259;97827;-66
2023/08/18 08:40:33;;;;;;;15.50;3.60;;;;;;;30.49;40.94;101437.28;106925;1257;98411;-66
2023/08/18 08:43:01;;;;;;;8.20;3.10;;;;;;;30.66;40.21;101434.80;106912;1258;112159;-67
2023/08/18 08:45:33;;;;;;;15.90;3.00;;;;;;;30.80;39.97;101431.81;106910;1261;109834;-68
2023/08/18 08:48:07;;;;;;;7.50;3.30;;;;;;;30.95;39.14;101432.53;106948;1263;109337;-67
2023/08/18 08:50:39;;;;;;;10.60;3.30;;;;;;;31.07;38.87;101434.46;106944;1259;97811;-68
2023/08/18 08:53:11;;;;;;;13.60;3.20;;;;;;;31.20;38.99;101432.36;107033;1261;97891;-71
2023/08/18 08:55:42;;;;;;;4.40;3.00;;;;;;;31.39;38.42;101433.20;107133;1261;111728;-68
2023/08/18 08:58:11;;;;;;;24.60;14.30;;;;;;;31.56;37.86;101431.54;107124;1261;110428;-69
2023/08/18 09:00:42;;;;;;;11.00;4.50;;;;;;;31.72;38.44;101432.13;107086;1263;107177;-68
2023/08/18 09:03:12;;;;;;;12.60;3.20;;;;;;;31.89;37.93;101431.11;106904;1261;97825;-67
2023/08/18 09:05:40;;;;;;;13.90;3.00;;;;;;;32.12;37.64;101427.80;107060;1261;97832;-67
2023/08/18 09:08:08;;;;;;;8.40;3.30;;;;;;;32.39;36.72;101432.04;106927;1261;111899;-70
2023/08/18 09:10:39;;;;;;;16.00;3.10;;;;;;;32.59;35.93;101427.38;106898;1259;109395;-69
2023/08/18 09:13:08;;;;;;;10.90;3.30;;;;;;;32.79;35.59;101423.77;106943;1261;107490;-70
2023/08/18 09:15:36;;;;;;;6.30;3.20;;;;;;;32.89;35.29;101426.35;106959;1257;97813;-69
2023/08/18 09:18:06;;;;;;;14.30;3.00;;;;;;;32.96;34.75;101422.09;106896;1258;97761;-67
2023/08/18 09:20:34;;;;;;;13.30;2.60;;;;;;;32.99;34.88;101420.83;106969;1261;111304;-68
2023/08/18 09:53:19;;;;;;;7.80;2.30;;;;;;;37.72;28.36;101407.96;105057;1284;649568;-67
2023/08/18 09:55:51;;;;;;;14.20;3.10;;;;;;;37.88;27.38;101409.58;106441;1263;353557;-67
2023/08/18 09:58:34;;;;;;;12.40;2.70;;;;;;;37.31;27.49;101404.00;106707;1267;95803;-66
2023/08/18 10:01:05;;;;;;;13.00;2.60;;;;;;;36.88;28.35;101405.05;106763;1263;108104;-67
2023/08/18 10:03:38;;;;;;;11.10;2.90;;;;;;;36.79;29.07;101405.03;106715;1263;109687;-68
2023/08/18 10:06:07;;;;;;;6.30;2.60;;;;;;;36.69;29.38;101402.96;106755;1264;107883;-66
2023/08/18 10:08:35;;;;;;;18.30;2.80;;;;;;;36.60;29.64;101401.45;106691;1264;95921;-66
2023/08/18 10:11:05;;;;;;;11.80;2.80;;;;;;;36.70;29.55;101398.42;107293;1256;95929;-68
2023/08/18 10:13:37;;;;;;;8.90;2.20;;;;;;;36.62;30.04;101401.59;107305;1255;107320;-67
2023/08/18 10:16:06;;;;;;;12.00;2.80;;;;;;;36.51;29.73;101401.04;107392;1257;109852;-65
2023/08/18 10:18:34;;;;;;;17.30;2.90;;;;;;;36.33;29.45;101399.25;107229;1259;108505;-68
2023/08/18 10:21:03;;;;;;;14.30;3.00;;;;;;;36.03;29.80;101397.24;107251;1257;95850;-68
2023/08/18 10:23:31;;;;;;;9.40;2.60;;;;;;;35.71;30.40;101393.61;107312;1256;95810;-67
2023/08/18 10:26:02;;;;;;;8.20;2.50;;;;;;;35.44;30.62;101395.66;107365;1257;109346;-68
2023/08/18 10:28:33;;;;;;;9.20;2.70;;;;;;;35.30;31.34;101395.62;107360;1257;108392;-68
2023/08/18 10:31:09;;;;;;;10.00;2.50;;;;;;;35.17;31.23;101392.55;107337;1257;108746;-66
2023/08/18 10:33:43;;;;;;;14.70;2.60;;;;;;;35.33;31.10;101396.27;107365;1260;95826;-67
2023/08/18 10:36:28;;;;;;;9.70;2.60;;;;;;;35.42;31.21;101397.74;107341;1257;95813;-66
2023/08/18 10:39:24;;;;;;;7.20;2.00;;;;;;;35.54;31.04;101396.00;107330;1257;108746;-68
2023/08/18 10:42:13;;;;;;;11.70;3.50;;;;;;;35.53;30.90;101397.40;107300;1257;110284;-70
2023/08/18 10:44:58;;;;;;;9.50;2.30;;;;;;;35.51;31.13;101394.39;107234;1257;108189;-68
2023/08/18 10:47:35;;;;;;;6.80;2.40;;;;;;;36.28;30.80;101393.92;107058;1260;95874;-67
2023/08/18 10:50:04;;;;;;;8.10;2.40;;;;;;;36.80;29.72;101393.14;107012;1256;97524;-67
2023/08/18 10:52:32;;;;;;;9.60;3.00;;;;;;;36.80;29.69;101389.05;107165;1256;109607;-67
2023/08/18 10:55:02;;;;;;;6.20;2.20;;;;;;;36.71;29.56;101388.31;107251;1257;109827;-68
2023/08/18 10:57:33;;;;;;;8.70;2.60;;;;;;;36.74;29.54;101388.35;107211;1257;107849;-67
2023/08/18 11:00:02;;;;;;;10.50;2.70;;;;;;;37.59;28.81;101387.14;107180;1257;95795;-67
2023/08/18 11:02:30;;;;;;;5.40;2.30;;;;;;;38.50;27.53;101381.80;107258;1257;95960;-66
2023/08/18 11:04:59;;;;;;;10.80;2.40;;;;;;;39.36;27.00;101381.43;107330;1260;108977;-68
2023/08/18 11:07:28;;;;;;;10.00;2.50;;;;;;;40.24;25.92;101380.08;107201;1256;109194;-68
2023/08/18 11:10:00;;;;;;;13.40;2.60;;;;;;;40.96;24.90;101377.30;107275;1256;108214;-67
2023/08/18 11:12:28;;;;;;;8.90;2.10;;;;;;;41.64;24.30;101373.82;107193;1255;95803;-67
2023/08/18 11:14:57;;;;;;;10.70;2.20;;;;;;;42.23;23.70;101369.41;107334;1257;95800;-66
2023/08/18 11:17:25;;;;;;;9.60;1.80;;;;;;;42.81;22.73;101367.17;107240;1257;108756;-66
2023/08/18 11:19:54;;;;;;;7.40;1.80;;;;;;;43.28;21.76;101368.79;107204;1257;109824;-66
2023/08/18 11:22:22;;;;;;;4.30;2.10;;;;;;;43.53;21.65;101362.90;107218;1256;108575;-66
2023/08/18 11:24:50;;;;;;;9.60;1.90;;;;;;;43.99;21.41;101359.56;107267;1256;95970;-66
2023/08/18 11:27:19;;;;;;;5.10;2.10;;;;;;;44.46;20.76;101356.94;107217;1256;95746;-66
2023/08/18 11:29:47;;;;;;;9.20;1.70;;;;;;;44.74;20.35;101355.23;107220;1256;108639;-66
2023/08/18 11:32:16;;;;;;;7.10;1.90;;;;;;;45.14;19.16;101349.84;107237;1257;109748;-67
2023/08/18 11:34:44;;;;;;;5.00;1.60;;;;;;;45.39;18.87;101351.23;107284;1259;114818;-67
2023/08/18 11:37:13;;;;;;;7.10;1.90;;;;;;;45.41;18.93;101354.36;107098;1257;95874;-67
2023/08/18 11:39:41;;;;;;;5.70;1.90;;;;;;;45.22;18.91;101353.97;107211;1257;95828;-71
2023/08/18 11:42:09;;;;;;;10.90;1.90;;;;;;;45.36;18.59;101353.98;107212;1260;109243;-66
2023/08/18 11:44:38;;;;;;;11.00;1.90;;;;;;;45.67;18.62;101351.84;107018;1257;109403;-67
2023/08/18 11:47:08;;;;;;;6.80;1.20;;;;;;;45.86;18.16;101350.65;107244;1257;107584;-66
2023/08/18 11:49:36;;;;;;;10.20;2.10;;;;;;;46.08;17.84;101350.17;107083;1260;95792;-67